Saint Petersburg Beach, Florida
Current Conditions -  °F | °C
As of 10:53 PM on Thursday 18 Dec 2014 (Local Time) from KSPG Reporting Station
Clear Clear  
Wind Chill: 14°   Ceiling: Unl
Heat Index: 14°   Visibility: 10mi
Dew Point: 11°   Wind: 5mph
Humidity: 81%   Direction: 360°N
Pressure: 30.13"   Gusts: NA
Location:  27.7254°N, 82.7422°W
Report Text: KSPG 190353Z AUTO 36004KT 10SM CLR 14/11 A3013 RMK AO2 SLP201 T01440111
Loading
Personal Weather Stations






























Interactive Weather Map New forecast layout! Learn more

10-Day Weather Forecast

Advertisements
Track Severe Weather on mobile